createdAt,value
2023-04-17T00:00:26.752Z,73.09
2023-04-17T00:02:54.107Z,73.38
2023-04-17T00:05:24.381Z,73.51
2023-04-17T00:07:54.333Z,72.97
2023-04-17T00:10:21.682Z,72.51
2023-04-17T00:12:48.906Z,72.59
2023-04-17T00:15:16.577Z,73.29
2023-04-17T00:17:43.913Z,72.94
2023-04-17T00:20:12.434Z,73.30
2023-04-17T00:22:40.065Z,73.08
2023-04-17T00:25:10.424Z,74.00
2023-04-17T00:27:37.839Z,73.45
2023-04-17T00:30:07.209Z,73.29
2023-04-17T00:32:34.756Z,74.42
2023-04-17T00:35:02.225Z,73.51
2023-04-17T00:37:30.100Z,73.95
2023-04-17T00:39:57.666Z,73.75
2023-04-17T00:42:24.920Z,73.17
2023-04-17T00:44:52.180Z,73.45
2023-04-17T00:47:22.521Z,73.84
2023-04-17T00:49:51.473Z,73.27
2023-04-17T00:52:30.080Z,72.18
2023-04-17T00:55:00.285Z,73.07
2023-04-17T00:57:28.258Z,72.39
2023-04-17T00:59:58.270Z,73.70
2023-04-17T01:02:26.886Z,73.52
2023-04-17T01:04:54.797Z,72.24
2023-04-17T01:07:22.806Z,72.47
2023-04-17T01:09:50.509Z,73.12
2023-04-17T01:12:24.847Z,73.43
2023-04-17T01:14:57.278Z,72.33
2023-04-17T01:17:26.355Z,73.17
2023-04-17T01:19:55.915Z,73.60
2023-04-17T01:22:23.618Z,72.85
2023-04-17T01:24:55.768Z,72.70
2023-04-17T01:27:25.383Z,73.12
2023-04-17T01:29:52.966Z,72.65
2023-04-17T01:32:21.157Z,73.38
2023-04-17T01:34:48.725Z,72.78
2023-04-17T01:37:16.990Z,72.39
2023-04-17T01:39:44.487Z,73.02
2023-04-17T01:42:11.701Z,73.24
2023-04-17T01:44:39.123Z,72.45
2023-04-17T01:47:06.373Z,71.82
2023-04-17T01:49:34.119Z,71.42
2023-04-17T01:52:01.972Z,72.55
2023-04-17T01:54:29.589Z,72.89
2023-04-17T01:56:57.506Z,73.22
2023-04-17T01:59:24.924Z,73.08
2023-04-17T02:01:55.894Z,72.67
2023-04-17T02:04:23.670Z,73.04
2023-04-17T02:06:51.372Z,73.53
2023-04-17T02:09:18.922Z,72.78
2023-04-17T02:11:46.429Z,73.36
2023-04-17T02:14:17.221Z,73.17
2023-04-17T02:16:46.044Z,71.42
2023-04-17T02:19:13.959Z,72.19
2023-04-17T02:21:42.198Z,71.92
2023-04-17T02:24:10.096Z,71.86
2023-04-17T02:26:37.598Z,71.42
2023-04-17T02:29:05.939Z,71.08
2023-04-17T02:31:33.201Z,71.13
2023-04-17T02:34:00.804Z,70.09
2023-04-17T02:36:28.436Z,69.93
2023-04-17T02:38:56.317Z,68.10
2023-04-17T02:41:23.550Z,69.81
2023-04-17T02:43:54.548Z,69.52
2023-04-17T02:46:23.764Z,70.13
2023-04-17T02:48:51.390Z,70.53
2023-04-17T02:51:21.299Z,69.55
2023-04-17T02:53:49.200Z,69.20
2023-04-17T02:56:16.711Z,70.01
2023-04-17T02:58:46.926Z,69.22
2023-04-17T03:01:14.501Z,69.53
2023-04-17T03:03:44.956Z,67.80
2023-04-17T03:06:14.442Z,67.68
2023-04-17T03:08:42.264Z,67.71
2023-04-17T03:11:09.778Z,67.30
2023-04-17T03:13:40.733Z,66.03
2023-04-17T03:16:08.100Z,66.21
2023-04-17T03:18:41.486Z,67.15
2023-04-17T03:21:09.245Z,65.99
2023-04-17T03:23:36.822Z,65.98
2023-04-17T03:26:08.401Z,66.25
2023-04-17T03:28:39.104Z,65.85
2023-04-17T03:31:06.614Z,65.92
2023-04-17T03:33:35.530Z,65.36
2023-04-17T03:36:03.007Z,66.56
2023-04-17T03:38:30.261Z,66.07
2023-04-17T03:40:59.017Z,65.81
2023-04-17T03:43:30.427Z,66.18
2023-04-17T03:46:02.422Z,66.31
2023-04-17T03:48:31.304Z,66.40
2023-04-17T03:50:59.395Z,67.08
2023-04-17T03:53:30.388Z,67.51
2023-04-17T03:56:00.261Z,67.63
2023-04-17T03:58:35.916Z,67.31
2023-04-17T04:01:04.012Z,67.24
2023-04-17T04:03:35.875Z,66.78
2023-04-17T04:06:04.068Z,66.24
2023-04-17T04:08:31.420Z,66.37
2023-04-17T04:11:00.711Z,66.26
2023-04-17T04:13:35.010Z,65.59
2023-04-17T04:16:04.380Z,65.57
2023-04-17T04:18:36.178Z,66.46
2023-04-17T04:21:05.718Z,66.25
2023-04-17T04:23:40.185Z,66.25
2023-04-17T04:26:09.644Z,66.27
2023-04-17T04:28:44.680Z,66.74
2023-04-17T04:31:29.703Z,66.26
2023-04-17T04:33:59.826Z,66.23
2023-04-17T04:36:30.327Z,66.03
2023-04-17T04:39:21.544Z,65.32
2023-04-17T04:41:53.897Z,65.70
2023-04-17T04:44:24.812Z,65.43
2023-04-17T04:46:56.783Z,65.68
2023-04-17T04:49:24.505Z,65.39
2023-04-17T04:51:52.232Z,65.59
2023-04-17T04:54:21.794Z,65.47
2023-04-17T04:56:54.958Z,65.35
2023-04-17T04:59:22.836Z,65.18
2023-04-17T05:01:58.936Z,65.00
2023-04-17T05:04:27.178Z,64.64
2023-04-17T05:06:59.256Z,65.20
2023-04-17T05:09:26.613Z,64.54
2023-04-17T05:11:57.034Z,66.07
2023-04-17T05:14:24.539Z,64.73
2023-04-17T05:16:51.845Z,64.61
2023-04-17T05:19:19.554Z,64.61
2023-04-17T05:21:55.125Z,65.52
2023-04-17T05:24:24.048Z,66.84
2023-04-17T05:26:51.502Z,66.69
2023-04-17T05:29:18.799Z,66.26
2023-04-17T05:31:47.225Z,65.75
2023-04-17T05:34:26.976Z,66.22
2023-04-17T05:36:54.843Z,66.14
2023-04-17T05:39:22.050Z,65.91
2023-04-17T05:41:49.348Z,65.29
2023-04-17T05:44:19.772Z,64.74
2023-04-17T05:46:47.953Z,64.64
2023-04-17T05:49:15.431Z,64.57
2023-04-17T05:51:43.034Z,63.99
2023-04-17T05:54:10.826Z,63.87
2023-04-17T05:56:40.063Z,63.28
2023-04-17T05:59:07.274Z,63.57
2023-04-17T06:01:37.645Z,63.19
2023-04-17T06:04:05.913Z,63.06
2023-04-17T06:06:33.474Z,64.45
2023-04-17T06:09:00.928Z,64.20
2023-04-17T06:11:28.283Z,62.67
2023-04-17T06:13:55.954Z,63.42
2023-04-17T06:16:23.355Z,63.36
2023-04-17T06:18:50.724Z,63.99
2023-04-17T06:21:18.209Z,64.60
2023-04-17T06:23:45.553Z,64.32
2023-04-17T06:26:13.490Z,64.03
2023-04-17T06:28:41.036Z,63.95
2023-04-17T06:31:08.530Z,63.36
2023-04-17T06:33:36.153Z,64.25
2023-04-17T06:36:04.088Z,64.33
2023-04-17T06:38:47.018Z,64.66
2023-04-17T06:41:16.370Z,65.42
2023-04-17T06:43:43.773Z,64.46
2023-04-17T06:46:15.145Z,64.95
2023-04-17T06:48:42.460Z,65.10
2023-04-17T06:51:09.784Z,64.96
2023-04-17T06:53:37.166Z,65.12
2023-04-17T06:56:05.516Z,63.23
2023-04-17T06:58:33.325Z,64.63
2023-04-17T07:01:00.700Z,64.07
2023-04-17T07:03:28.141Z,65.65
2023-04-17T07:05:56.105Z,63.97
2023-04-17T07:08:23.625Z,63.99
2023-04-17T07:10:51.069Z,63.56
2023-04-17T07:13:18.304Z,64.33
2023-04-17T07:15:54.210Z,63.50
2023-04-17T07:18:22.195Z,65.14
2023-04-17T07:20:49.789Z,64.73
2023-04-17T07:23:17.257Z,65.13
2023-04-17T07:25:44.446Z,63.38
2023-04-17T07:28:11.769Z,64.60
2023-04-17T07:30:39.042Z,65.77
2023-04-17T07:33:06.661Z,65.02
2023-04-17T07:35:34.204Z,63.67
2023-04-17T07:38:06.344Z,63.19
2023-04-17T07:40:37.269Z,64.33
2023-04-17T07:43:04.936Z,63.07
2023-04-17T07:45:33.501Z,63.84
2023-04-17T07:48:00.879Z,65.47
2023-04-17T07:50:54.161Z,63.80
2023-04-17T07:53:22.282Z,65.08
2023-04-17T07:55:50.191Z,64.40
2023-04-17T07:58:17.526Z,66.23
2023-04-17T08:00:44.914Z,64.40
2023-04-17T08:03:14.704Z,64.54
2023-04-17T08:05:42.679Z,63.49
2023-04-17T08:08:10.193Z,62.54
2023-04-17T08:10:37.436Z,64.85
2023-04-17T08:13:06.505Z,64.52
2023-04-17T08:15:43.894Z,64.38
2023-04-17T08:18:11.840Z,64.07
2023-04-17T08:20:40.048Z,61.29
2023-04-17T08:23:07.334Z,61.69
2023-04-17T08:25:34.728Z,61.31
2023-04-17T08:28:02.044Z,60.51
2023-04-17T08:30:29.566Z,60.75
2023-04-17T08:32:57.510Z,61.19
2023-04-17T08:35:25.491Z,59.21
2023-04-17T08:37:55.398Z,60.51
2023-04-17T08:40:24.979Z,61.60
2023-04-17T08:42:55.256Z,60.08
2023-04-17T08:45:24.663Z,59.35
2023-04-17T08:47:52.090Z,58.79
2023-04-17T08:50:22.001Z,61.24
2023-04-17T08:53:24.231Z,60.57
2023-04-17T08:55:51.651Z,60.70
2023-04-17T08:58:21.959Z,61.37
2023-04-17T09:00:49.721Z,62.55
2023-04-17T09:03:17.255Z,60.75
2023-04-17T09:05:48.771Z,60.53
2023-04-17T09:08:21.920Z,61.52
2023-04-17T09:10:55.364Z,61.09
2023-04-17T09:13:25.830Z,63.39
2023-04-17T09:16:15.873Z,63.41
2023-04-17T09:19:58.750Z,64.80
2023-04-17T09:22:26.040Z,66.83
2023-04-17T09:24:53.583Z,65.50
2023-04-17T09:28:39.190Z,64.20
2023-04-17T09:32:22.186Z,65.76
2023-04-17T09:34:50.529Z,67.04
2023-04-17T09:38:33.944Z,65.20
2023-04-17T09:41:01.382Z,63.78
2023-04-17T09:43:44.416Z,64.72
2023-04-17T09:46:12.192Z,63.82
2023-04-17T09:49:55.938Z,65.38
2023-04-17T09:53:38.661Z,61.82
2023-04-17T09:57:21.472Z,62.04
2023-04-17T10:01:04.306Z,64.61
2023-04-17T10:03:35.011Z,63.22
2023-04-17T10:06:09.695Z,65.60
2023-04-17T10:08:37.621Z,66.52
2023-04-17T10:12:20.114Z,62.85
2023-04-17T10:14:52.376Z,59.69
2023-04-17T10:17:36.852Z,58.94
2023-04-17T10:20:17.720Z,60.65
2023-04-17T10:22:56.198Z,60.22
2023-04-17T10:25:29.617Z,61.43
2023-04-17T10:28:02.212Z,61.45
2023-04-17T10:30:54.909Z,60.79
2023-04-17T10:33:27.282Z,60.97
2023-04-17T10:35:55.381Z,61.88
2023-04-17T10:38:36.707Z,60.98
2023-04-17T10:41:09.400Z,64.72
2023-04-17T10:43:42.651Z,63.42
2023-04-17T10:46:14.783Z,64.31
2023-04-17T10:48:53.381Z,63.24
2023-04-17T10:51:26.669Z,63.07
2023-04-17T10:54:04.784Z,63.52
2023-04-17T10:56:53.077Z,63.50
2023-04-17T10:59:22.755Z,62.24
2023-04-17T11:01:51.269Z,60.79
2023-04-17T11:04:40.217Z,60.14
2023-04-17T11:07:07.975Z,55.73
2023-04-17T11:09:36.186Z,56.21
2023-04-17T11:12:04.024Z,54.24
2023-04-17T11:14:32.132Z,54.21
2023-04-17T11:17:01.230Z,51.13
2023-04-17T11:19:28.717Z,50.57
2023-04-17T11:22:02.584Z,50.49
2023-04-17T11:24:32.480Z,50.40
2023-04-17T11:27:03.403Z,50.51
2023-04-17T11:29:31.254Z,47.30
2023-04-17T11:32:00.961Z,48.39
2023-04-17T11:34:29.324Z,51.03
2023-04-17T11:37:00.737Z,48.13
2023-04-17T11:39:34.246Z,48.26
2023-04-17T11:42:05.153Z,44.99
2023-04-17T11:44:32.647Z,48.48
2023-04-17T11:47:02.063Z,48.51
2023-04-17T11:49:38.571Z,44.33
2023-04-17T11:52:06.426Z,40.73
2023-04-17T11:54:38.894Z,40.95
2023-04-17T11:57:14.607Z,38.76
2023-04-17T11:59:45.442Z,37.38
2023-04-17T12:02:13.320Z,41.09
2023-04-17T12:04:40.992Z,38.99
2023-04-17T12:07:21.694Z,40.96
2023-04-17T12:09:58.462Z,37.61
2023-04-17T12:12:25.965Z,33.86
2023-04-17T12:14:53.423Z,33.33
2023-04-17T12:17:21.254Z,39.88
2023-04-17T12:19:48.936Z,40.50
2023-04-17T12:22:16.829Z,43.89
2023-04-17T12:24:45.263Z,52.36
2023-04-17T12:27:12.978Z,66.23
2023-04-17T12:29:44.350Z,65.32
2023-04-17T12:32:12.681Z,65.74
2023-04-17T12:34:40.601Z,67.38
2023-04-17T12:37:12.778Z,71.64
2023-04-17T12:39:40.601Z,75.10
2023-04-17T12:42:08.152Z,73.26
2023-04-17T12:44:35.568Z,69.05
2023-04-17T12:47:03.136Z,73.16
2023-04-17T12:49:31.122Z,72.43
2023-04-17T12:52:00.356Z,73.21
2023-04-17T12:54:29.086Z,73.77
2023-04-17T12:56:57.716Z,71.99
2023-04-17T12:59:25.582Z,70.66
2023-04-17T13:01:53.417Z,64.49
2023-04-17T13:04:21.504Z,65.49
2023-04-17T13:06:49.249Z,60.25
2023-04-17T13:09:17.884Z,61.21
2023-04-17T13:11:45.411Z,60.44
2023-04-17T13:14:13.034Z,64.24
2023-04-17T13:16:40.887Z,63.77
2023-04-17T13:19:08.138Z,63.00
2023-04-17T13:21:35.548Z,62.19
2023-04-17T13:24:03.855Z,60.96
2023-04-17T13:26:33.042Z,60.71
2023-04-17T13:29:00.581Z,57.59
2023-04-17T13:31:28.360Z,58.55
2023-04-17T13:33:56.149Z,54.87
2023-04-17T13:36:23.964Z,51.35
2023-04-17T13:38:52.698Z,49.32
2023-04-17T13:41:21.335Z,49.39
2023-04-17T13:43:48.778Z,47.04
2023-04-17T13:46:17.140Z,49.27
2023-04-17T13:48:45.672Z,47.36
2023-04-17T13:51:14.485Z,47.98
2023-04-17T13:53:42.439Z,55.07
2023-04-17T13:56:10.961Z,57.41
2023-04-17T13:58:40.475Z,57.76
2023-04-17T14:01:08.867Z,55.67
2023-04-17T14:03:39.016Z,58.33
2023-04-17T14:06:08.136Z,59.83
2023-04-17T14:08:35.627Z,59.88
2023-04-17T14:11:03.371Z,57.80
2023-04-17T14:13:30.958Z,60.09
2023-04-17T14:15:58.359Z,57.50
2023-04-17T14:18:25.719Z,55.30
2023-04-17T14:20:54.174Z,58.39
2023-04-17T14:23:22.455Z,57.12
2023-04-17T14:25:52.992Z,58.04
2023-04-17T14:28:21.450Z,57.27
2023-04-17T14:30:51.006Z,57.30
2023-04-17T14:33:18.481Z,58.36
2023-04-17T14:35:46.140Z,58.47
2023-04-17T14:38:13.821Z,58.68
2023-04-17T14:40:41.725Z,57.80
2023-04-17T14:43:09.247Z,56.88
2023-04-17T14:45:37.174Z,56.18
2023-04-17T14:48:05.413Z,55.23
2023-04-17T14:50:33.301Z,55.62
2023-04-17T14:53:01.175Z,56.42
2023-04-17T14:55:29.359Z,56.36
2023-04-17T14:57:57.310Z,56.03
2023-04-17T15:00:25.050Z,54.72
2023-04-17T15:02:55.116Z,55.80
2023-04-17T15:05:22.817Z,54.23
2023-04-17T15:07:50.761Z,55.02
2023-04-17T15:10:18.355Z,52.85
2023-04-17T15:12:45.987Z,49.36
2023-04-17T15:15:16.325Z,52.29
2023-04-17T15:17:43.747Z,49.66
2023-04-17T15:20:11.634Z,49.72
2023-04-17T15:22:39.104Z,50.52
2023-04-17T15:25:09.067Z,49.63
2023-04-17T15:27:36.316Z,49.70
2023-04-17T15:30:06.649Z,50.01
2023-04-17T15:32:33.909Z,49.64
2023-04-17T15:35:01.429Z,52.34
2023-04-17T15:37:30.306Z,49.92
2023-04-17T15:39:58.092Z,49.62
2023-04-17T15:42:27.224Z,49.24
2023-04-17T15:44:55.578Z,49.31
2023-04-17T15:47:23.606Z,49.04
2023-04-17T15:49:51.241Z,50.10
2023-04-17T15:52:18.515Z,50.35
2023-04-17T15:54:45.790Z,50.09
2023-04-17T15:57:13.172Z,49.61
2023-04-17T15:59:40.535Z,49.34
2023-04-17T16:02:13.067Z,49.12
2023-04-17T16:04:43.122Z,48.75
2023-04-17T16:07:12.226Z,50.38
2023-04-17T16:09:40.844Z,49.43
2023-04-17T16:12:10.328Z,49.96
2023-04-17T16:14:38.566Z,49.36
2023-04-17T16:17:06.052Z,49.22
2023-04-17T16:19:33.695Z,49.62
2023-04-17T16:22:02.236Z,51.32
2023-04-17T16:24:30.297Z,50.32
2023-04-17T16:27:01.426Z,50.07
2023-04-17T16:29:29.043Z,50.50
2023-04-17T16:31:57.100Z,49.99
2023-04-17T16:34:25.084Z,51.82
2023-04-17T16:36:52.733Z,50.19
2023-04-17T16:39:21.592Z,50.70
2023-04-17T16:41:49.008Z,49.44
2023-04-17T16:44:16.376Z,50.05
2023-04-17T16:47:03.105Z,50.55
2023-04-17T16:49:31.972Z,50.05
2023-04-17T16:51:59.642Z,50.37
2023-04-17T16:54:27.026Z,50.29
2023-04-17T16:56:54.488Z,50.55
2023-04-17T16:59:22.085Z,49.76
2023-04-17T17:01:52.007Z,49.68
2023-04-17T17:04:19.434Z,50.86
2023-04-17T17:06:46.855Z,51.48
2023-04-17T17:09:14.586Z,50.29
2023-04-17T17:11:41.881Z,51.31
2023-04-17T17:14:09.406Z,50.18
2023-04-17T17:16:36.930Z,51.74
2023-04-17T17:19:05.184Z,51.60
2023-04-17T17:21:33.318Z,50.38
2023-04-17T17:24:01.535Z,50.83
2023-04-17T17:26:29.845Z,52.27
2023-04-17T17:28:57.641Z,51.63
2023-04-17T17:31:24.921Z,51.74
2023-04-17T17:33:54.066Z,50.53
2023-04-17T17:36:22.007Z,51.82
2023-04-17T17:38:56.092Z,50.79
2023-04-17T17:41:24.576Z,51.77
2023-04-17T17:43:52.780Z,51.94
2023-04-17T17:46:21.339Z,52.15
2023-04-17T17:48:48.981Z,51.40
2023-04-17T17:51:16.540Z,50.12
2023-04-17T17:53:44.171Z,50.36
2023-04-17T17:56:11.518Z,50.47
2023-04-17T17:58:38.772Z,51.41
2023-04-17T18:01:06.914Z,51.77
2023-04-17T18:03:35.669Z,52.30
2023-04-17T18:06:04.689Z,50.84
2023-04-17T18:08:32.494Z,51.18
2023-04-17T18:11:01.894Z,51.51
2023-04-17T18:13:29.436Z,51.72
2023-04-17T18:15:56.958Z,51.28
2023-04-17T18:18:24.313Z,52.47
2023-04-17T18:20:59.106Z,53.09
2023-04-17T18:23:27.392Z,54.14
2023-04-17T18:26:03.984Z,53.29
2023-04-17T18:28:33.052Z,53.12
2023-04-17T18:31:00.562Z,53.19
2023-04-17T18:33:28.809Z,54.01
2023-04-17T18:35:56.550Z,53.41
2023-04-17T18:38:24.413Z,53.56
2023-04-17T18:40:59.344Z,53.86
2023-04-17T18:43:28.173Z,53.81
2023-04-17T18:45:55.752Z,53.85
2023-04-17T18:48:28.491Z,54.63
2023-04-17T18:50:55.907Z,54.16
2023-04-17T18:53:23.288Z,53.84
2023-04-17T18:55:51.592Z,55.10
2023-04-17T18:58:18.961Z,54.48
2023-04-17T19:00:46.821Z,54.25
2023-04-17T19:03:14.276Z,55.69
2023-04-17T19:05:41.603Z,55.16
2023-04-17T19:08:09.605Z,56.35
2023-04-17T19:10:39.541Z,55.95
2023-04-17T19:13:09.798Z,55.45
2023-04-17T19:15:37.943Z,55.38
2023-04-17T19:18:06.769Z,56.17
2023-04-17T19:20:38.192Z,56.98
2023-04-17T19:23:14.330Z,57.04
2023-04-17T19:25:46.997Z,57.32
2023-04-17T19:28:14.348Z,56.11
2023-04-17T19:30:41.650Z,56.47
2023-04-17T19:33:10.792Z,55.85
2023-04-17T19:35:38.303Z,56.02
2023-04-17T19:38:06.024Z,56.07
2023-04-17T19:40:33.554Z,56.48
2023-04-17T19:43:01.456Z,56.19
2023-04-17T19:45:31.823Z,55.80
2023-04-17T19:48:00.448Z,54.17
2023-04-17T19:50:29.922Z,54.38
2023-04-17T19:52:58.967Z,54.64
2023-04-17T19:55:26.322Z,56.01
2023-04-17T19:57:56.139Z,55.16
2023-04-17T20:00:23.597Z,54.28
2023-04-17T20:02:51.314Z,54.33
2023-04-17T20:05:22.412Z,54.87
2023-04-17T20:07:50.638Z,55.29
2023-04-17T20:10:18.851Z,54.96
2023-04-17T20:12:46.195Z,55.48
2023-04-17T20:15:13.647Z,55.98
2023-04-17T20:17:41.052Z,54.66
2023-04-17T20:20:09.554Z,55.11
2023-04-17T20:22:37.136Z,55.63
2023-04-17T20:25:06.576Z,54.98
2023-04-17T20:27:34.605Z,55.76
2023-04-17T20:30:02.525Z,54.11
2023-04-17T20:32:29.801Z,53.69
2023-04-17T20:34:57.500Z,53.15
2023-04-17T20:37:26.071Z,54.63
2023-04-17T20:39:53.520Z,54.39
2023-04-17T20:42:20.868Z,54.55
2023-04-17T20:44:48.152Z,54.25
2023-04-17T20:47:16.036Z,54.28
2023-04-17T20:49:43.627Z,53.49
2023-04-17T20:52:11.254Z,52.83
2023-04-17T20:54:38.921Z,53.63
2023-04-17T20:57:08.735Z,55.34
2023-04-17T20:59:37.204Z,56.50
2023-04-17T21:02:05.035Z,56.10
2023-04-17T21:04:33.070Z,55.15
2023-04-17T21:07:01.009Z,54.44
2023-04-17T21:09:28.469Z,56.41
2023-04-17T21:11:55.906Z,54.61
2023-04-17T21:14:23.695Z,54.52
2023-04-17T21:16:54.398Z,54.86
2023-04-17T21:19:24.187Z,54.74
2023-04-17T21:21:51.899Z,54.22
2023-04-17T21:24:20.191Z,55.82
2023-04-17T21:26:48.083Z,55.31
2023-04-17T21:29:15.514Z,56.33
2023-04-17T21:31:44.109Z,56.11
2023-04-17T21:34:13.593Z,55.19
2023-04-17T21:36:41.724Z,57.21
2023-04-17T21:39:10.708Z,55.37
2023-04-17T21:41:38.503Z,55.59
2023-04-17T21:44:05.803Z,55.50
2023-04-17T21:46:33.683Z,55.34
2023-04-17T21:49:01.521Z,55.17
2023-04-17T21:51:28.770Z,55.29
2023-04-17T21:53:55.912Z,56.00
2023-04-17T21:56:24.098Z,54.91
2023-04-17T21:58:51.693Z,54.50
2023-04-17T22:01:19.361Z,55.27
2023-04-17T22:03:47.457Z,54.61
2023-04-17T22:06:15.197Z,54.58
2023-04-17T22:08:42.752Z,55.55
2023-04-17T22:11:10.369Z,55.46
2023-04-17T22:13:39.427Z,55.54
2023-04-17T22:16:10.712Z,55.41
2023-04-17T22:18:42.297Z,55.81
2023-04-17T22:21:14.491Z,55.71
2023-04-17T22:23:42.612Z,56.13
2023-04-17T22:26:10.954Z,55.82
2023-04-17T22:28:38.265Z,55.46
2023-04-17T22:31:05.705Z,54.16
2023-04-17T22:33:33.062Z,55.83
2023-04-17T22:36:00.448Z,55.49
2023-04-17T22:38:29.796Z,56.01
2023-04-17T22:41:05.014Z,55.51
2023-04-17T22:43:32.529Z,56.52
2023-04-17T22:46:03.236Z,55.82
2023-04-17T22:48:31.288Z,55.74
2023-04-17T22:50:58.941Z,56.09
2023-04-17T22:53:29.726Z,56.19
2023-04-17T22:56:03.102Z,54.93
2023-04-17T22:58:33.011Z,57.30
2023-04-17T23:01:00.669Z,56.52
2023-04-17T23:03:28.561Z,55.92
2023-04-17T23:05:57.061Z,55.78
2023-04-17T23:08:24.844Z,56.32
2023-04-17T23:11:03.773Z,56.45
2023-04-17T23:13:31.759Z,58.26
2023-04-17T23:15:59.094Z,58.92
2023-04-17T23:18:26.302Z,57.90
2023-04-17T23:20:54.181Z,57.16
2023-04-17T23:23:21.987Z,57.41
2023-04-17T23:25:49.227Z,56.96
2023-04-17T23:28:16.688Z,55.74
2023-04-17T23:30:43.852Z,55.68
2023-04-17T23:33:11.321Z,54.90
2023-04-17T23:35:38.918Z,54.76
2023-04-17T23:38:07.068Z,55.38
2023-04-17T23:40:34.840Z,56.24
2023-04-17T23:43:02.279Z,54.68
2023-04-17T23:45:29.733Z,54.99
2023-04-17T23:47:57.169Z,53.05
2023-04-17T23:50:24.399Z,54.50
2023-04-17T23:52:53.262Z,55.24
2023-04-17T23:55:22.917Z,56.43
2023-04-17T23:57:50.109Z,57.67
